Capitol Logistics 7301

Operating for MZN



KBWI
Baltimore/Washington International Thurgood Marshall Airport
Baltimore, Maryland
KLAX
Los Angeles International Airport
Los Angeles, California

Activity Log

Date Flight Route Aircraft Duration
No Flights Yet

Route Details

Aircraft Information
Primary: Boeing 767-300BDSF
Backup: Boeing 757-200SF
Route Data
Distance: 2327nm
Duration: 5h 50m
Recm'd Route: TERPZ7 MCRAY J518 IHD J518 DJB J34 BAE J16 MCW J148 CYS EKR PROMT Q88 HAKMN ANJLL4
Origin Wx: KBWI 141911Z 19003KT 2 1/2SM -RA BR SCT025 BKN065 OVC080 15/12 A3000 RMK AO2 P0001 T01500117
Dest. Wx: KLAX 141853Z 26012KT 8SM SCT026 SCT036 BKN140 16/07 A3002 RMK AO2 SLP163 SCT036 V BKN T01560072 $
Notes: